createdAt,value
2023-03-16T00:01:16.578Z,92.90
2023-03-16T00:03:45.854Z,93.10
2023-03-16T00:06:13.726Z,93.30
2023-03-16T00:08:43.181Z,93.20
2023-03-16T00:11:13.174Z,93.20
2023-03-16T00:13:42.855Z,93.10
2023-03-16T00:16:16.833Z,93.10
2023-03-16T00:18:46.106Z,92.50
2023-03-16T00:21:15.839Z,92.30
2023-03-16T00:23:43.809Z,92.00
2023-03-16T00:26:13.030Z,92.30
2023-03-16T00:28:42.652Z,92.70
2023-03-16T00:31:12.703Z,92.00
2023-03-16T00:33:42.719Z,91.80
2023-03-16T00:36:12.801Z,91.90
2023-03-16T00:38:45.079Z,91.90
2023-03-16T00:41:15.296Z,92.30
2023-03-16T00:43:45.351Z,92.20
2023-03-16T00:46:16.007Z,93.00
2023-03-16T00:48:45.679Z,92.30
2023-03-16T00:51:16.973Z,92.00
2023-03-16T00:53:46.918Z,92.00
2023-03-16T00:56:15.048Z,91.80
2023-03-16T00:58:43.999Z,92.00
2023-03-16T01:01:14.273Z,92.10
2023-03-16T01:03:42.443Z,92.10
2023-03-16T01:06:12.597Z,91.80
2023-03-16T01:08:42.580Z,91.50
2023-03-16T01:11:13.129Z,91.40
2023-03-16T01:13:41.535Z,91.80
2023-03-16T01:16:10.666Z,91.70
2023-03-16T01:18:38.585Z,91.90
2023-03-16T01:21:08.953Z,92.10
2023-03-16T01:23:37.473Z,92.10
2023-03-16T01:26:08.324Z,92.00
2023-03-16T01:28:36.425Z,92.10
2023-03-16T01:31:06.914Z,92.10
2023-03-16T01:33:35.175Z,92.00
2023-03-16T01:36:05.278Z,92.10
2023-03-16T01:38:33.566Z,91.80
2023-03-16T01:41:01.865Z,91.70
2023-03-16T01:43:33.185Z,92.00
2023-03-16T01:46:24.050Z,92.10
2023-03-16T01:49:01.491Z,92.00
2023-03-16T01:51:34.073Z,91.90
2023-03-16T01:54:05.822Z,92.10
2023-03-16T01:56:38.816Z,92.00
2023-03-16T01:59:12.385Z,91.80
2023-03-16T02:01:40.637Z,92.00
2023-03-16T02:04:23.066Z,92.30
2023-03-16T02:06:51.271Z,92.30
2023-03-16T02:09:20.289Z,91.90
2023-03-16T02:11:49.083Z,91.80
2023-03-16T02:14:18.269Z,91.70
2023-03-16T02:16:47.488Z,91.70
2023-03-16T02:19:21.091Z,91.90
2023-03-16T02:21:54.802Z,92.10
2023-03-16T02:24:22.831Z,92.10
2023-03-16T02:26:55.988Z,92.20
2023-03-16T02:29:47.864Z,92.30
2023-03-16T02:32:17.366Z,92.50
2023-03-16T02:34:45.400Z,92.20
2023-03-16T02:37:13.368Z,91.90
2023-03-16T02:39:44.026Z,92.00
2023-03-16T02:42:15.396Z,91.80
2023-03-16T02:44:48.067Z,91.70
2023-03-16T02:47:25.358Z,91.40
2023-03-16T02:49:53.204Z,91.60
2023-03-16T02:52:21.084Z,91.30
2023-03-16T02:54:48.895Z,91.00
2023-03-16T02:57:16.798Z,90.90
2023-03-16T02:59:45.931Z,90.80
2023-03-16T03:02:14.117Z,90.70
2023-03-16T03:04:46.274Z,90.80
2023-03-16T03:07:14.374Z,90.90
2023-03-16T03:09:43.181Z,91.30
2023-03-16T03:12:11.783Z,91.50
2023-03-16T03:14:40.858Z,91.60
2023-03-16T03:17:13.837Z,91.50
2023-03-16T03:19:42.428Z,91.70
2023-03-16T03:22:10.301Z,91.70
2023-03-16T03:24:39.126Z,91.60
2023-03-16T03:27:07.093Z,91.50
2023-03-16T03:29:35.374Z,91.50
2023-03-16T03:32:03.329Z,91.70
2023-03-16T03:34:32.951Z,91.90
2023-03-16T03:37:01.243Z,92.00
2023-03-16T03:39:29.125Z,91.80
2023-03-16T03:41:56.990Z,92.10
2023-03-16T03:44:26.930Z,91.70
2023-03-16T03:46:54.853Z,92.00
2023-03-16T03:49:22.732Z,91.70
2023-03-16T03:51:52.063Z,91.90
2023-03-16T03:54:19.924Z,92.00
2023-03-16T03:56:47.852Z,92.00
2023-03-16T03:59:15.712Z,91.90
2023-03-16T04:01:43.522Z,91.90
2023-03-16T04:04:11.370Z,91.90
2023-03-16T04:06:39.234Z,91.80
2023-03-16T04:09:08.762Z,91.50
2023-03-16T04:11:36.610Z,91.50
2023-03-16T04:14:04.830Z,91.40
2023-03-16T04:16:34.032Z,91.60
2023-03-16T04:19:01.887Z,91.50
2023-03-16T04:21:29.691Z,92.00
2023-03-16T04:23:57.524Z,92.30
2023-03-16T04:26:26.784Z,92.30
2023-03-16T04:28:54.654Z,92.60
2023-03-16T04:31:22.574Z,92.30
2023-03-16T04:33:50.730Z,92.20
2023-03-16T04:36:18.577Z,92.30
2023-03-16T04:38:46.423Z,92.20
2023-03-16T04:41:14.319Z,92.20
2023-03-16T04:43:43.497Z,92.20
2023-03-16T04:46:12.035Z,92.40
2023-03-16T04:48:39.938Z,92.20
2023-03-16T04:51:07.843Z,92.20
2023-03-16T04:53:36.123Z,92.30
2023-03-16T04:56:04.120Z,92.20
2023-03-16T04:58:32.005Z,92.50
2023-03-16T05:01:01.197Z,92.80
2023-03-16T05:03:29.042Z,93.10
2023-03-16T05:05:56.947Z,93.30
2023-03-16T05:08:24.838Z,93.80
2023-03-16T05:10:52.665Z,94.10
2023-03-16T05:13:20.889Z,94.40
2023-03-16T05:15:49.192Z,94.80
2023-03-16T05:18:18.443Z,94.80
2023-03-16T05:20:46.316Z,94.60
2023-03-16T05:23:14.149Z,94.70
2023-03-16T05:25:41.992Z,94.80
2023-03-16T05:28:09.872Z,94.10
2023-03-16T05:30:38.023Z,94.60
2023-03-16T05:33:06.110Z,94.90
2023-03-16T05:35:35.711Z,94.80
2023-03-16T05:38:03.665Z,94.80
2023-03-16T05:40:33.059Z,94.80
2023-03-16T05:43:01.232Z,94.70
2023-03-16T05:45:29.740Z,94.60
2023-03-16T05:47:57.690Z,94.60
2023-03-16T05:50:26.648Z,94.50
2023-03-16T05:52:56.045Z,94.40
2023-03-16T05:55:24.444Z,94.40
2023-03-16T05:57:52.268Z,94.60
2023-03-16T06:00:21.431Z,94.70
2023-03-16T06:02:52.243Z,94.70
2023-03-16T06:05:24.366Z,94.60
2023-03-16T06:07:52.707Z,94.70
2023-03-16T06:10:22.292Z,94.50
2023-03-16T06:12:50.266Z,94.50
2023-03-16T06:15:18.141Z,94.40
2023-03-16T06:17:46.068Z,94.60
2023-03-16T06:20:14.883Z,94.00
2023-03-16T06:22:43.995Z,94.20
2023-03-16T06:25:14.177Z,94.50
2023-03-16T06:27:43.555Z,94.50
2023-03-16T06:30:13.737Z,94.00
2023-03-16T06:32:43.183Z,94.60
2023-03-16T06:35:12.232Z,94.40
2023-03-16T06:37:40.082Z,94.40
2023-03-16T06:40:09.708Z,94.30
2023-03-16T06:42:37.541Z,94.50
2023-03-16T06:45:07.934Z,94.30
2023-03-16T06:47:35.821Z,94.30
2023-03-16T06:50:04.468Z,94.20
2023-03-16T06:52:32.647Z,94.50
2023-03-16T06:55:00.472Z,94.50
2023-03-16T06:57:28.567Z,94.00
2023-03-16T06:59:56.381Z,94.30
2023-03-16T07:02:25.652Z,94.30
2023-03-16T07:04:54.001Z,94.30
2023-03-16T07:07:21.935Z,94.30
2023-03-16T07:09:49.814Z,94.10
2023-03-16T07:12:17.726Z,94.00
2023-03-16T07:14:47.304Z,94.10
2023-03-16T07:17:16.690Z,93.50
2023-03-16T07:19:45.872Z,94.10
2023-03-16T07:22:13.869Z,94.10
2023-03-16T07:24:41.708Z,93.80
2023-03-16T07:27:12.063Z,94.20
2023-03-16T07:29:40.247Z,93.90
2023-03-16T07:32:08.530Z,94.40
2023-03-16T07:34:36.469Z,94.30
2023-03-16T07:37:06.503Z,94.00
2023-03-16T07:39:34.425Z,93.70
2023-03-16T07:42:02.494Z,93.70
2023-03-16T07:44:31.243Z,93.70
2023-03-16T07:46:59.114Z,93.40
2023-03-16T07:49:27.697Z,93.60
2023-03-16T07:51:55.558Z,92.70
2023-03-16T07:54:25.295Z,93.20
2023-03-16T07:56:53.120Z,93.00
2023-03-16T07:59:21.451Z,92.90
2023-03-16T08:01:49.375Z,92.80
2023-03-16T08:04:17.233Z,92.60
2023-03-16T08:06:45.424Z,92.20
2023-03-16T08:09:13.406Z,91.50
2023-03-16T08:11:42.770Z,89.90
2023-03-16T08:14:10.844Z,90.30
2023-03-16T08:16:38.700Z,85.60
2023-03-16T08:19:07.208Z,88.20
2023-03-16T08:21:48.715Z,83.60
2023-03-16T08:24:24.079Z,86.00
2023-03-16T08:26:53.265Z,84.40
2023-03-16T08:29:21.162Z,81.10
2023-03-16T08:31:49.671Z,74.70
2023-03-16T08:34:18.018Z,75.60
2023-03-16T08:36:46.058Z,77.30
2023-03-16T08:39:13.904Z,77.00
2023-03-16T08:41:42.912Z,77.90
2023-03-16T08:44:12.948Z,75.10
2023-03-16T08:46:42.296Z,70.50
2023-03-16T08:49:10.916Z,72.10
2023-03-16T08:51:39.228Z,76.30
2023-03-16T08:54:07.449Z,72.50
2023-03-16T08:56:35.382Z,70.50
2023-03-16T08:59:03.689Z,71.00
2023-03-16T09:01:34.010Z,70.50
2023-03-16T09:04:03.309Z,70.30
2023-03-16T09:06:31.658Z,71.70
2023-03-16T09:09:00.003Z,68.30
2023-03-16T09:11:30.608Z,70.60
2023-03-16T09:13:58.618Z,71.40
2023-03-16T09:16:26.706Z,76.30
2023-03-16T09:18:55.936Z,71.00
2023-03-16T09:21:23.920Z,73.10
2023-03-16T09:23:51.878Z,73.70
2023-03-16T09:26:20.750Z,78.20
2023-03-16T09:28:49.300Z,77.40
2023-03-16T09:31:18.992Z,77.90
2023-03-16T09:33:47.993Z,77.80
2023-03-16T09:36:17.585Z,77.60
2023-03-16T09:38:45.562Z,77.00
2023-03-16T09:41:25.667Z,73.30
2023-03-16T09:44:04.743Z,76.40
2023-03-16T09:46:36.698Z,76.40
2023-03-16T09:49:04.987Z,76.40
2023-03-16T09:51:45.265Z,76.40
2023-03-16T09:54:22.754Z,76.80
2023-03-16T09:56:52.205Z,76.00
2023-03-16T09:59:22.483Z,77.10
2023-03-16T10:02:11.883Z,76.00
2023-03-16T10:04:46.251Z,75.50
2023-03-16T10:07:26.514Z,76.30
2023-03-16T10:09:58.583Z,75.20
2023-03-16T10:12:33.010Z,74.40
2023-03-16T10:15:07.034Z,74.90
2023-03-16T10:17:40.135Z,75.20
2023-03-16T10:20:13.029Z,75.60
2023-03-16T10:22:44.927Z,78.20
2023-03-16T10:25:20.594Z,75.70
2023-03-16T10:27:49.129Z,75.80
2023-03-16T10:30:25.741Z,73.90
2023-03-16T10:32:53.811Z,71.80
2023-03-16T10:35:31.246Z,67.90
2023-03-16T10:38:00.806Z,68.50
2023-03-16T10:40:32.664Z,69.80
2023-03-16T10:43:06.962Z,64.40
2023-03-16T10:45:37.384Z,63.50
2023-03-16T10:48:10.096Z,61.70
2023-03-16T10:50:38.111Z,62.90
2023-03-16T10:53:17.825Z,63.70
2023-03-16T10:55:45.822Z,61.20
2023-03-16T10:58:25.182Z,59.40
2023-03-16T11:00:53.584Z,63.40
2023-03-16T11:03:25.481Z,63.10
2023-03-16T11:06:02.293Z,57.70
2023-03-16T11:08:34.882Z,58.40
2023-03-16T11:11:11.849Z,55.20
2023-03-16T11:13:44.970Z,58.40
2023-03-16T11:16:23.020Z,54.80
2023-03-16T11:18:55.373Z,48.10
2023-03-16T11:21:32.054Z,48.10
2023-03-16T11:24:04.513Z,47.20
2023-03-16T11:26:35.741Z,45.90
2023-03-16T11:29:11.134Z,46.40
2023-03-16T11:31:46.232Z,46.20
2023-03-16T11:34:17.816Z,46.60
2023-03-16T11:36:51.177Z,49.60
2023-03-16T11:39:32.854Z,46.30
2023-03-16T11:42:15.700Z,47.60
2023-03-16T11:44:50.605Z,52.90
2023-03-16T11:47:43.765Z,50.60
2023-03-16T11:50:17.868Z,46.90
2023-03-16T11:52:55.592Z,44.20
2023-03-16T11:55:33.506Z,45.50
2023-03-16T11:58:18.047Z,47.20
2023-03-16T12:00:55.559Z,41.20
2023-03-16T12:03:53.926Z,45.60
2023-03-16T12:06:31.430Z,47.30
2023-03-16T12:09:27.173Z,47.60
2023-03-16T12:12:01.792Z,47.40
2023-03-16T12:14:33.831Z,45.60
2023-03-16T12:17:05.574Z,49.60
2023-03-16T12:19:43.542Z,46.90
2023-03-16T12:22:19.084Z,45.70
2023-03-16T12:24:48.107Z,45.80
2023-03-16T12:27:22.546Z,46.10
2023-03-16T12:30:01.881Z,47.60
2023-03-16T12:32:40.432Z,48.30
2023-03-16T12:35:23.045Z,46.70
2023-03-16T12:38:00.918Z,49.30
2023-03-16T12:40:36.034Z,44.60
2023-03-16T12:43:17.126Z,45.60
2023-03-16T12:45:58.188Z,46.10
2023-03-16T12:48:29.902Z,45.10
2023-03-16T12:51:00.817Z,44.20
2023-03-16T12:53:42.172Z,38.80
2023-03-16T12:56:12.180Z,38.30
2023-03-16T12:58:48.474Z,39.60
2023-03-16T13:01:19.918Z,37.40
2023-03-16T13:03:51.696Z,37.50
2023-03-16T13:06:22.654Z,36.80
2023-03-16T13:08:56.679Z,35.00
2023-03-16T13:11:25.331Z,35.70
2023-03-16T13:14:10.894Z,36.10
2023-03-16T13:16:40.059Z,37.00
2023-03-16T13:19:24.687Z,36.80
2023-03-16T13:22:04.391Z,36.00
2023-03-16T13:24:40.935Z,39.60
2023-03-16T13:27:23.201Z,38.50
2023-03-16T13:29:57.410Z,39.40
2023-03-16T13:32:28.680Z,40.50
2023-03-16T13:34:59.786Z,37.20
2023-03-16T13:37:30.641Z,37.80
2023-03-16T13:39:59.873Z,37.20
2023-03-16T13:42:31.436Z,37.90
2023-03-16T13:45:12.114Z,41.60
2023-03-16T13:47:43.635Z,40.10
2023-03-16T13:50:14.021Z,37.70
2023-03-16T13:52:44.593Z,40.10
2023-03-16T13:55:17.405Z,41.40
2023-03-16T13:57:46.863Z,41.30
2023-03-16T14:00:20.220Z,40.60
2023-03-16T14:02:52.093Z,42.40
2023-03-16T14:05:22.578Z,39.50
2023-03-16T14:07:52.129Z,39.80
2023-03-16T14:10:20.914Z,41.20
2023-03-16T14:12:53.125Z,40.80
2023-03-16T14:15:23.874Z,39.50
2023-03-16T14:17:51.909Z,41.90
2023-03-16T14:20:23.215Z,41.00
2023-03-16T14:22:54.519Z,40.20
2023-03-16T14:25:25.454Z,41.40
2023-03-16T14:28:00.894Z,44.10
2023-03-16T14:30:31.568Z,40.20
2023-03-16T14:33:01.251Z,39.00
2023-03-16T14:35:31.747Z,39.80
2023-03-16T14:38:20.126Z,38.80
2023-03-16T14:40:54.112Z,41.30
2023-03-16T14:43:26.225Z,41.70
2023-03-16T14:45:56.059Z,42.50
2023-03-16T14:48:24.705Z,43.10
2023-03-16T14:50:55.518Z,41.00
2023-03-16T14:53:24.509Z,39.00
2023-03-16T14:55:52.322Z,38.90
2023-03-16T14:58:20.101Z,38.70
2023-03-16T15:00:53.090Z,40.60
2023-03-16T15:03:28.259Z,39.00
2023-03-16T15:05:56.115Z,40.60
2023-03-16T15:08:27.215Z,39.80
2023-03-16T15:10:56.209Z,39.50
2023-03-16T15:13:52.520Z,39.90
2023-03-16T15:16:21.843Z,39.70
2023-03-16T15:18:51.857Z,38.00
2023-03-16T15:21:23.325Z,38.50
2023-03-16T15:23:51.355Z,38.10
2023-03-16T15:26:25.246Z,39.30
2023-03-16T15:28:53.123Z,39.40
2023-03-16T15:31:21.221Z,37.80
2023-03-16T15:33:49.180Z,40.30
2023-03-16T15:36:20.533Z,37.80
2023-03-16T15:38:51.379Z,38.20
2023-03-16T15:41:19.609Z,38.00
2023-03-16T15:43:47.440Z,37.90
2023-03-16T15:46:16.563Z,38.60
2023-03-16T15:48:44.591Z,38.20
2023-03-16T15:51:22.421Z,39.10
2023-03-16T15:53:52.551Z,37.70
2023-03-16T15:56:26.530Z,37.60
2023-03-16T15:58:54.370Z,38.90
2023-03-16T16:01:24.344Z,38.90
2023-03-16T16:03:56.024Z,40.10
2023-03-16T16:06:26.581Z,40.00
2023-03-16T16:08:54.387Z,40.10
2023-03-16T16:11:26.453Z,40.40
2023-03-16T16:13:55.740Z,39.20
2023-03-16T16:16:24.020Z,41.10
2023-03-16T16:18:51.940Z,39.50
2023-03-16T16:21:23.382Z,40.50
2023-03-16T16:23:53.700Z,39.90
2023-03-16T16:26:34.395Z,40.50
2023-03-16T16:29:14.869Z,40.40
2023-03-16T16:31:43.159Z,40.70
2023-03-16T16:34:14.272Z,40.40
2023-03-16T16:36:42.221Z,40.80
2023-03-16T16:39:12.591Z,42.20
2023-03-16T16:41:41.825Z,41.10
2023-03-16T16:44:17.704Z,42.50
2023-03-16T16:46:45.987Z,45.70
2023-03-16T16:49:16.906Z,44.30
2023-03-16T16:51:44.745Z,43.60
2023-03-16T16:54:17.615Z,44.20
2023-03-16T16:56:46.482Z,43.70
2023-03-16T16:59:18.556Z,43.50
2023-03-16T17:01:47.599Z,43.30
2023-03-16T17:04:17.635Z,44.10
2023-03-16T17:06:46.736Z,44.40
2023-03-16T17:09:16.205Z,44.50
2023-03-16T17:11:46.054Z,43.70
2023-03-16T17:14:18.397Z,46.10
2023-03-16T17:16:48.454Z,45.30
2023-03-16T17:19:21.636Z,46.80
2023-03-16T17:21:49.939Z,49.90
2023-03-16T17:24:19.177Z,52.40
2023-03-16T17:26:48.934Z,50.20
2023-03-16T17:29:21.046Z,56.30
2023-03-16T17:31:49.983Z,57.50
2023-03-16T17:34:20.851Z,56.70
2023-03-16T17:36:49.539Z,57.30
2023-03-16T17:39:21.674Z,58.70
2023-03-16T17:41:50.388Z,63.00
2023-03-16T17:44:20.016Z,61.50
2023-03-16T17:46:48.145Z,62.60
2023-03-16T17:49:18.186Z,59.40
2023-03-16T17:51:46.547Z,61.20
2023-03-16T17:54:14.864Z,64.00
2023-03-16T17:56:44.168Z,67.60
2023-03-16T17:59:17.490Z,66.80
2023-03-16T18:01:47.023Z,66.20
2023-03-16T18:04:17.924Z,66.80
2023-03-16T18:06:47.356Z,69.50
2023-03-16T18:09:15.817Z,67.30
2023-03-16T18:11:47.777Z,69.00
2023-03-16T18:14:25.429Z,69.10
2023-03-16T18:16:54.676Z,69.60
2023-03-16T18:19:25.365Z,67.90
2023-03-16T18:21:53.863Z,69.20
2023-03-16T18:24:25.709Z,69.40
2023-03-16T18:26:55.213Z,70.30
2023-03-16T18:29:24.039Z,73.20
2023-03-16T18:31:56.216Z,72.40
2023-03-16T18:34:25.178Z,74.50
2023-03-16T18:36:54.927Z,71.40
2023-03-16T18:39:23.273Z,67.80
2023-03-16T18:41:51.290Z,66.40
2023-03-16T18:44:23.300Z,67.30
2023-03-16T18:46:53.083Z,68.80
2023-03-16T18:49:23.740Z,71.10
2023-03-16T18:51:54.579Z,75.00
2023-03-16T18:54:24.720Z,74.10
2023-03-16T18:56:53.763Z,75.70
2023-03-16T18:59:23.065Z,76.30
2023-03-16T19:01:51.824Z,78.30
2023-03-16T19:04:24.298Z,79.80
2023-03-16T19:06:54.175Z,82.60
2023-03-16T19:09:25.030Z,82.30
2023-03-16T19:11:52.943Z,82.60
2023-03-16T19:14:24.476Z,83.50
2023-03-16T19:16:53.208Z,84.40
2023-03-16T19:19:22.614Z,83.60
2023-03-16T19:21:52.675Z,84.10
2023-03-16T19:24:26.487Z,83.50
2023-03-16T19:26:54.624Z,83.10
2023-03-16T19:29:30.813Z,82.90
2023-03-16T19:31:59.786Z,83.60
2023-03-16T19:34:28.173Z,84.50
2023-03-16T19:36:56.217Z,84.40
2023-03-16T19:39:24.077Z,83.90
2023-03-16T19:41:57.463Z,83.70
2023-03-16T19:44:28.845Z,83.30
2023-03-16T19:46:59.064Z,83.90
2023-03-16T19:49:29.218Z,84.80
2023-03-16T19:51:57.619Z,85.20
2023-03-16T19:54:27.153Z,85.00
2023-03-16T19:56:56.676Z,84.80
2023-03-16T19:59:30.134Z,85.20
2023-03-16T20:01:58.054Z,84.80
2023-03-16T20:04:27.373Z,85.40
2023-03-16T20:06:55.367Z,85.60
2023-03-16T20:09:23.244Z,85.30
2023-03-16T20:11:51.360Z,85.30
2023-03-16T20:14:21.887Z,83.60
2023-03-16T20:16:51.671Z,84.60
2023-03-16T20:19:22.180Z,84.70
2023-03-16T20:21:50.404Z,85.40
2023-03-16T20:24:20.741Z,86.50
2023-03-16T20:26:51.463Z,86.40
2023-03-16T20:29:25.239Z,86.60
2023-03-16T20:31:54.508Z,86.90
2023-03-16T20:34:24.280Z,86.90
2023-03-16T20:36:52.114Z,86.90
2023-03-16T20:39:19.999Z,87.40
2023-03-16T20:41:48.084Z,87.30
2023-03-16T20:44:19.195Z,86.70
2023-03-16T20:46:47.851Z,87.80
2023-03-16T20:49:34.101Z,88.50
2023-03-16T20:52:02.020Z,88.70
2023-03-16T20:54:29.885Z,88.60
2023-03-16T20:56:57.791Z,88.50
2023-03-16T20:59:28.202Z,88.60
2023-03-16T21:01:56.315Z,89.00
2023-03-16T21:04:27.243Z,88.20
2023-03-16T21:06:57.542Z,87.80
2023-03-16T21:09:25.694Z,88.90
2023-03-16T21:11:53.649Z,88.50
2023-03-16T21:14:24.115Z,88.10
2023-03-16T21:16:54.152Z,89.10
2023-03-16T21:19:23.842Z,89.10
2023-03-16T21:21:52.185Z,88.30
2023-03-16T21:24:21.862Z,88.60
2023-03-16T21:26:49.905Z,87.50
2023-03-16T21:29:21.911Z,87.60
2023-03-16T21:31:49.966Z,87.90
2023-03-16T21:34:24.722Z,88.30
2023-03-16T21:36:52.711Z,88.80
2023-03-16T21:39:24.867Z,89.20
2023-03-16T21:41:53.523Z,88.20
2023-03-16T21:44:21.785Z,88.80
2023-03-16T21:46:49.912Z,87.90
2023-03-16T21:49:17.961Z,88.20
2023-03-16T21:51:45.841Z,89.40
2023-03-16T21:54:14.905Z,89.50
2023-03-16T21:56:44.784Z,89.50
2023-03-16T21:59:13.282Z,89.10
2023-03-16T22:01:58.401Z,89.40
2023-03-16T22:04:29.329Z,88.70
2023-03-16T22:06:57.301Z,88.30
2023-03-16T22:09:29.833Z,89.60
2023-03-16T22:11:59.128Z,89.80
2023-03-16T22:14:27.208Z,89.70
2023-03-16T22:16:55.445Z,90.00
2023-03-16T22:19:23.432Z,90.00
2023-03-16T22:21:51.519Z,90.00
2023-03-16T22:24:21.303Z,90.10
2023-03-16T22:26:50.717Z,90.20
2023-03-16T22:29:25.182Z,90.00
2023-03-16T22:31:55.373Z,89.90
2023-03-16T22:34:29.857Z,90.00
2023-03-16T22:36:58.465Z,89.40
2023-03-16T22:39:26.517Z,88.70
2023-03-16T22:41:54.419Z,89.10
2023-03-16T22:44:24.991Z,89.60
2023-03-16T22:46:52.954Z,89.20
2023-03-16T22:49:23.668Z,88.50
2023-03-16T22:51:53.653Z,89.90
2023-03-16T22:54:25.413Z,90.10
2023-03-16T22:56:53.890Z,90.00
2023-03-16T22:59:26.074Z,90.30
2023-03-16T23:01:54.005Z,90.10
2023-03-16T23:04:24.632Z,90.00
2023-03-16T23:06:54.163Z,89.70
2023-03-16T23:09:22.749Z,89.90
2023-03-16T23:11:54.043Z,90.00
2023-03-16T23:14:26.263Z,90.10
2023-03-16T23:16:54.372Z,89.80
2023-03-16T23:19:26.026Z,89.70
2023-03-16T23:21:56.122Z,89.50
2023-03-16T23:24:24.001Z,90.20
2023-03-16T23:26:52.993Z,90.10
2023-03-16T23:29:21.647Z,90.00
2023-03-16T23:31:51.276Z,90.20
2023-03-16T23:34:21.336Z,90.20
2023-03-16T23:36:49.720Z,90.30
2023-03-16T23:39:18.044Z,90.50
2023-03-16T23:41:49.118Z,90.50
2023-03-16T23:44:18.350Z,90.30
2023-03-16T23:46:46.944Z,90.10
2023-03-16T23:49:19.995Z,90.10
2023-03-16T23:51:48.038Z,90.00
2023-03-16T23:54:19.454Z,90.10
2023-03-16T23:56:47.378Z,90.10
2023-03-16T23:59:15.434Z,90.30
